createdAt,value
2017-11-08T00:00:15.772Z,5.93
2017-11-08T00:01:26.273Z,5.96
2017-11-08T00:02:36.485Z,6.05
2017-11-08T00:03:46.955Z,5.94
2017-11-08T00:04:57.427Z,5.93
2017-11-08T00:06:07.898Z,5.93
2017-11-08T00:07:18.405Z,5.94
2017-11-08T00:08:28.875Z,6.01
2017-11-08T00:09:39.486Z,6.02
2017-11-08T00:10:49.625Z,5.88
2017-11-08T00:12:00.207Z,5.99
2017-11-08T00:13:10.665Z,5.93
2017-11-08T00:14:21.216Z,5.93
2017-11-08T00:15:31.666Z,5.83
2017-11-08T00:16:41.786Z,5.88
2017-11-08T00:17:52.269Z,5.9
2017-11-08T00:19:02.729Z,5.9
2017-11-08T00:20:14.398Z,5.9
2017-11-08T00:21:24.829Z,5.9
2017-11-08T00:22:34.854Z,5.96
2017-11-08T00:23:45.282Z,5.83
2017-11-08T00:24:55.808Z,5.86
2017-11-08T00:26:06.246Z,5.88
2017-11-08T00:27:16.724Z,5.9
2017-11-08T00:28:27.172Z,5.93
2017-11-08T00:29:37.653Z,5.9
2017-11-08T00:30:48.123Z,5.9
2017-11-08T00:31:58.276Z,5.96
2017-11-08T00:33:08.732Z,5.91
2017-11-08T00:34:19.242Z,5.93
2017-11-08T00:35:29.698Z,5.88
2017-11-08T00:36:39.701Z,5.88
2017-11-08T00:37:50.150Z,5.99
2017-11-08T00:39:00.583Z,5.96
2017-11-08T00:40:10.728Z,5.96
2017-11-08T00:41:21.214Z,5.98
2017-11-08T00:42:31.658Z,5.96
2017-11-08T00:43:42.115Z,5.88
2017-11-08T00:44:52.567Z,5.96
2017-11-08T00:46:02.793Z,5.9
2017-11-08T00:47:13.592Z,5.88
2017-11-08T00:48:24.106Z,5.96
2017-11-08T00:49:34.252Z,5.91
2017-11-08T00:50:44.705Z,6.03
2017-11-08T00:51:54.902Z,6.03
2017-11-08T00:53:05.508Z,6.01
2017-11-08T00:54:16.046Z,5.98
2017-11-08T00:55:26.547Z,6.03
2017-11-08T00:56:37.065Z,5.99
2017-11-08T00:57:47.281Z,5.98
2017-11-08T00:58:57.741Z,6.03
2017-11-08T01:00:07.928Z,5.94
2017-11-08T01:01:18.358Z,5.98
2017-11-08T01:02:28.820Z,5.99
2017-11-08T01:03:39.330Z,6.01
2017-11-08T01:04:49.552Z,5.96
2017-11-08T01:05:59.994Z,6.14
2017-11-08T01:07:10.461Z,6.02
2017-11-08T01:08:20.592Z,6.02
2017-11-08T01:09:30.767Z,5.99
2017-11-08T01:10:41.242Z,6.01
2017-11-08T01:11:51.810Z,5.94
2017-11-08T01:13:02.291Z,5.9
2017-11-08T01:14:12.731Z,6.01
2017-11-08T01:15:23.170Z,5.91
2017-11-08T01:16:33.371Z,5.98
2017-11-08T01:17:43.855Z,6.08
2017-11-08T01:18:54.294Z,6.06
2017-11-08T01:20:04.748Z,6.08
2017-11-08T01:21:14.545Z,6.05
2017-11-08T01:22:24.671Z,6.08
2017-11-08T01:23:35.111Z,6.09
2017-11-08T01:24:45.541Z,6.08
2017-11-08T01:25:55.993Z,6.08
2017-11-08T01:27:06.459Z,6.09
2017-11-08T01:28:16.974Z,6.11
2017-11-08T01:29:27.418Z,6.08
2017-11-08T01:30:37.895Z,6.14
2017-11-08T01:31:48.341Z,6.12
2017-11-08T01:32:58.888Z,6.17
2017-11-08T01:34:09.360Z,6.11
2017-11-08T01:35:19.815Z,6.12
2017-11-08T01:36:30.297Z,6.06
2017-11-08T01:37:40.084Z,6.06
2017-11-08T01:38:50.534Z,6.01
2017-11-08T01:40:01.217Z,5.96
2017-11-08T01:41:11.672Z,5.98
2017-11-08T01:42:22.277Z,5.96
2017-11-08T01:43:32.747Z,6.02
2017-11-08T01:44:43.446Z,5.93
2017-11-08T01:45:53.596Z,5.98
2017-11-08T01:47:04.032Z,5.88
2017-11-08T01:48:14.206Z,5.94
2017-11-08T01:49:24.874Z,5.91
2017-11-08T01:50:34.984Z,5.93
2017-11-08T01:51:45.447Z,5.83
2017-11-08T01:52:55.922Z,5.8
2017-11-08T01:54:06.063Z,5.84
2017-11-08T02:09:49.463Z,5.77
2017-11-08T02:11:00.147Z,5.8
2017-11-08T02:12:10.304Z,5.83
2017-11-08T02:13:20.873Z,5.8
2017-11-08T02:14:31.302Z,5.8
2017-11-08T02:15:41.741Z,5.72
2017-11-08T02:16:52.200Z,5.72
2017-11-08T02:18:02.772Z,5.8
2017-11-08T02:19:13.473Z,5.8
2017-11-08T02:20:23.915Z,5.75
2017-11-08T02:21:34.380Z,5.71
2017-11-08T02:22:45.822Z,5.75
2017-11-08T02:23:56.285Z,5.68
2017-11-08T02:25:06.738Z,5.69
2017-11-08T02:26:17.178Z,5.67
2017-11-08T02:27:27.614Z,5.74
2017-11-08T02:28:38.088Z,5.68
2017-11-08T02:29:48.554Z,5.67
2017-11-08T02:30:59.028Z,5.68
2017-11-08T02:32:09.484Z,5.74
2017-11-08T02:33:19.929Z,5.84
2017-11-08T02:34:30.336Z,5.79
2017-11-08T02:35:40.813Z,5.68
2017-11-08T02:36:51.465Z,5.72
2017-11-08T02:38:01.992Z,5.62
2017-11-08T02:39:12.435Z,5.72
2017-11-08T02:40:23.104Z,5.75
2017-11-08T02:41:33.355Z,5.75
2017-11-08T02:42:43.904Z,5.74
2017-11-08T02:43:54.342Z,5.8
2017-11-08T02:45:04.829Z,5.69
2017-11-08T02:46:15.263Z,5.83
2017-11-08T02:47:25.734Z,5.88
2017-11-08T02:48:36.269Z,5.86
2017-11-08T02:49:46.464Z,5.83
2017-11-08T02:50:56.903Z,5.9
2017-11-08T02:52:07.335Z,5.91
2017-11-08T02:53:17.811Z,5.93
2017-11-08T02:54:28.395Z,5.88
2017-11-08T02:55:38.842Z,5.9
2017-11-08T02:56:49.450Z,5.84
2017-11-08T02:57:59.900Z,5.9
2017-11-08T02:59:10.420Z,6.01
2017-11-08T03:00:20.848Z,6.02
2017-11-08T03:01:31.324Z,6.03
2017-11-08T03:02:41.103Z,5.91
2017-11-08T03:03:51.554Z,5.91
2017-11-08T03:05:02.049Z,5.9
2017-11-08T03:06:12.518Z,5.9
2017-11-08T03:07:22.358Z,5.93
2017-11-08T03:08:32.813Z,5.88
2017-11-08T03:09:43.251Z,5.9
2017-11-08T03:10:53.691Z,5.9
2017-11-08T03:12:04.174Z,5.94
2017-11-08T03:13:14.517Z,5.88
2017-11-08T03:14:24.682Z,5.93
2017-11-08T03:15:35.154Z,5.84
2017-11-08T03:16:45.593Z,5.91
2017-11-08T03:17:56.241Z,6.05
2017-11-08T03:19:06.700Z,6.01
2017-11-08T03:20:17.140Z,5.99
2017-11-08T03:21:27.580Z,6.02
2017-11-08T03:22:38.028Z,6.06
2017-11-08T03:23:48.504Z,6.06
2017-11-08T03:24:58.965Z,6.06
2017-11-08T03:26:09.408Z,5.98
2017-11-08T03:27:19.873Z,6.02
2017-11-08T03:28:30.338Z,6.06
2017-11-08T03:29:40.808Z,6.08
2017-11-08T03:30:51.250Z,6.05
2017-11-08T03:32:01.718Z,6.03
2017-11-08T03:33:12.163Z,6.05
2017-11-08T03:34:22.617Z,6.06
2017-11-08T03:35:33.058Z,6.06
2017-11-08T03:36:43.495Z,6.09
2017-11-08T03:37:54.039Z,6.12
2017-11-08T03:39:04.560Z,6.16
2017-11-08T03:40:15.001Z,6.12
2017-11-08T03:41:25.455Z,6.12
2017-11-08T03:42:36.018Z,6.2
2017-11-08T03:43:46.510Z,6.21
2017-11-08T03:44:56.962Z,6.28
2017-11-08T03:46:07.069Z,6.24
2017-11-08T03:47:17.505Z,6.27
2017-11-08T03:48:28.013Z,6.3
2017-11-08T03:49:38.580Z,6.31
2017-11-08T03:50:49.026Z,6.3
2017-11-08T03:51:59.137Z,6.34
2017-11-08T03:53:09.575Z,6.38
2017-11-08T03:54:20.151Z,6.31
2017-11-08T03:55:30.672Z,6.31
2017-11-08T03:56:41.121Z,6.31
2017-11-08T03:57:51.606Z,6.31
2017-11-08T03:59:02.275Z,6.41
2017-11-08T04:00:12.718Z,6.26
2017-11-08T04:01:23.150Z,6.28
2017-11-08T04:02:33.272Z,6.34
2017-11-08T04:03:43.502Z,6.28
2017-11-08T04:04:53.967Z,6.28
2017-11-08T04:06:04.608Z,6.39
2017-11-08T04:07:14.648Z,6.39
2017-11-08T04:08:25.113Z,6.38
2017-11-08T04:09:35.585Z,6.39
2017-11-08T04:10:46.039Z,6.34
2017-11-08T04:11:56.253Z,6.44
2017-11-08T04:13:06.698Z,6.26
2017-11-08T04:14:17.133Z,6.45
2017-11-08T04:15:27.598Z,6.45
2017-11-08T04:16:37.728Z,6.44
2017-11-08T04:17:48.281Z,6.39
2017-11-08T04:18:58.715Z,6.31
2017-11-08T04:20:09.184Z,6.3
2017-11-08T04:21:19.677Z,6.39
2017-11-08T04:22:29.470Z,6.42
2017-11-08T04:23:39.600Z,6.46
2017-11-08T04:24:50.026Z,6.46
2017-11-08T04:26:00.526Z,6.42
2017-11-08T04:27:10.900Z,6.53
2017-11-08T04:28:21.365Z,6.46
2017-11-08T04:29:31.805Z,6.48
2017-11-08T04:30:42.306Z,6.45
2017-11-08T04:31:52.024Z,6.52
2017-11-08T04:33:02.687Z,6.49
2017-11-08T04:34:13.111Z,6.49
2017-11-08T04:35:23.223Z,6.48
2017-11-08T04:36:33.665Z,6.45
2017-11-08T04:37:44.123Z,6.56
2017-11-08T04:38:54.698Z,6.46
2017-11-08T04:40:05.221Z,6.48
2017-11-08T04:41:15.801Z,6.52
2017-11-08T04:42:26.265Z,6.6
2017-11-08T04:43:36.723Z,6.53
2017-11-08T04:44:47.161Z,6.49
2017-11-08T04:45:57.641Z,6.54
2017-11-08T04:47:08.100Z,6.48
2017-11-08T04:48:18.577Z,6.53
2017-11-08T04:49:29.004Z,6.56
2017-11-08T04:50:39.548Z,6.54
2017-11-08T04:51:50.028Z,6.56
2017-11-08T04:53:00.162Z,6.54
2017-11-08T04:54:10.642Z,6.52
2017-11-08T04:55:21.084Z,6.52
2017-11-08T04:56:31.558Z,6.52
2017-11-08T04:57:42.010Z,6.6
2017-11-08T04:58:52.491Z,6.56
2017-11-08T05:00:02.956Z,6.54
2017-11-08T05:01:13.427Z,6.52
2017-11-08T05:02:23.555Z,6.54
2017-11-08T05:03:33.993Z,6.53
2017-11-08T05:04:44.558Z,6.54
2017-11-08T05:05:55.187Z,6.53
2017-11-08T05:07:05.673Z,6.49
2017-11-08T05:08:16.112Z,6.59
2017-11-08T05:09:26.546Z,6.53
2017-11-08T05:10:37.003Z,6.52
2017-11-08T05:11:47.459Z,6.56
2017-11-08T05:12:57.888Z,6.52
2017-11-08T05:14:08.205Z,6.57
2017-11-08T05:15:18.352Z,6.49
2017-11-08T05:16:28.801Z,6.49
2017-11-08T05:17:39.237Z,6.54
2017-11-08T05:18:49.771Z,6.54
2017-11-08T05:19:59.728Z,6.56
2017-11-08T05:21:10.191Z,6.48
2017-11-08T05:22:20.780Z,6.45
2017-11-08T05:23:30.952Z,6.49
2017-11-08T05:24:41.410Z,6.56
2017-11-08T05:25:51.909Z,6.53
2017-11-08T05:27:01.703Z,6.48
2017-11-08T05:28:12.139Z,6.44
2017-11-08T05:29:22.293Z,6.45
2017-11-08T05:30:32.791Z,6.45
2017-11-08T05:31:43.215Z,6.39
2017-11-08T05:32:53.682Z,6.45
2017-11-08T05:34:03.809Z,6.42
2017-11-08T05:35:14.299Z,6.39
2017-11-08T05:36:24.783Z,6.48
2017-11-08T05:37:35.255Z,6.41
2017-11-08T05:38:45.686Z,6.45
2017-11-08T05:39:56.136Z,6.42
2017-11-08T05:41:06.708Z,6.54
2017-11-08T05:42:17.158Z,6.42
2017-11-08T05:43:27.585Z,6.44
2017-11-08T05:44:38.038Z,6.44
2017-11-08T05:45:48.170Z,6.46
2017-11-08T05:46:58.834Z,6.42
2017-11-08T05:48:08.997Z,6.44
2017-11-08T05:49:19.469Z,6.45
2017-11-08T05:50:29.931Z,6.26
2017-11-08T05:51:40.395Z,6.3
2017-11-08T05:52:50.503Z,6.27
2017-11-08T05:54:00.967Z,6.26
2017-11-08T05:55:11.535Z,6.31
2017-11-08T05:56:22.198Z,6.35
2017-11-08T05:57:32.658Z,6.28
2017-11-08T05:58:43.092Z,6.28
2017-11-08T05:59:53.521Z,6.27
2017-11-08T06:01:03.979Z,6.3
2017-11-08T06:02:14.468Z,6.28
2017-11-08T06:03:24.952Z,6.41
2017-11-08T06:04:35.438Z,6.34
2017-11-08T06:05:45.899Z,6.28
2017-11-08T06:06:56.009Z,6.38
2017-11-08T06:08:06.473Z,6.28
2017-11-08T06:09:16.918Z,6.38
2017-11-08T06:10:27.395Z,6.26
2017-11-08T06:11:37.855Z,6.38
2017-11-08T06:12:48.293Z,6.26
2017-11-08T06:13:58.740Z,6.28
2017-11-08T06:15:09.179Z,6.3
2017-11-08T06:16:19.608Z,6.41
2017-11-08T06:17:30.037Z,6.38
2017-11-08T06:18:40.076Z,6.39
2017-11-08T06:19:50.525Z,6.41
2017-11-08T06:21:00.966Z,6.48
2017-11-08T06:22:11.446Z,6.44
2017-11-08T06:23:21.900Z,6.48
2017-11-08T06:24:32.028Z,6.44
2017-11-08T06:25:42.145Z,6.44
2017-11-08T06:26:52.373Z,6.41
2017-11-08T06:28:02.906Z,6.52
2017-11-08T06:29:13.352Z,6.41
2017-11-08T06:30:23.785Z,6.48
2017-11-08T06:31:34.270Z,6.49
2017-11-08T06:32:44.795Z,6.56
2017-11-08T06:33:55.272Z,6.49
2017-11-08T06:35:05.832Z,6.54
2017-11-08T06:36:16.284Z,6.44
2017-11-08T06:37:26.732Z,6.56
2017-11-08T06:38:37.177Z,6.53
2017-11-08T06:39:47.307Z,6.59
2017-11-08T06:40:57.741Z,6.59
2017-11-08T06:42:07.858Z,6.6
2017-11-08T06:43:17.962Z,6.54
2017-11-08T06:44:28.439Z,6.53
2017-11-08T06:45:38.237Z,6.54
2017-11-08T06:46:48.699Z,6.49
2017-11-08T06:47:59.351Z,6.57
2017-11-08T06:49:10.016Z,6.49
2017-11-08T06:50:20.575Z,6.52
2017-11-08T06:51:30.999Z,6.54
2017-11-08T06:52:41.442Z,6.53
2017-11-08T06:53:51.890Z,6.57
2017-11-08T06:55:02.414Z,6.54
2017-11-08T06:56:12.603Z,6.44
2017-11-08T06:57:23.047Z,6.39
2017-11-08T06:58:33.167Z,6.56
2017-11-08T06:59:43.623Z,6.39
2017-11-08T07:00:54.081Z,6.48
2017-11-08T07:02:04.528Z,6.54
2017-11-08T07:03:15.007Z,6.52
2017-11-08T07:04:25.497Z,6.49
2017-11-08T07:05:36.164Z,6.52
2017-11-08T07:06:46.747Z,6.48
2017-11-08T07:07:56.960Z,6.57
2017-11-08T07:09:07.416Z,6.42
2017-11-08T07:10:17.846Z,6.49
2017-11-08T07:11:28.318Z,6.41
2017-11-08T07:12:38.824Z,6.39
2017-11-08T07:13:48.984Z,6.3
2017-11-08T07:14:59.456Z,6.3
2017-11-08T07:16:09.979Z,6.31
2017-11-08T07:17:20.425Z,6.3
2017-11-08T07:18:30.855Z,6.35
2017-11-08T07:19:41.314Z,6.36
2017-11-08T07:20:51.781Z,6.44
2017-11-08T07:22:01.933Z,6.27
2017-11-08T07:23:12.366Z,6.41
2017-11-08T07:24:22.816Z,6.39
2017-11-08T07:25:33.282Z,6.45
2017-11-08T07:26:43.720Z,6.41
2017-11-08T07:27:53.900Z,6.44
2017-11-08T07:29:04.371Z,6.45
2017-11-08T07:30:14.836Z,6.44
2017-11-08T07:31:25.283Z,6.41
2017-11-08T07:32:35.453Z,6.44
2017-11-08T07:33:45.899Z,6.52
2017-11-08T07:34:55.953Z,6.39
2017-11-08T07:36:06.388Z,6.44
2017-11-08T07:37:16.607Z,6.41
2017-11-08T07:38:27.160Z,6.44
2017-11-08T07:39:37.341Z,6.48
2017-11-08T07:40:47.816Z,6.44
2017-11-08T07:41:58.290Z,6.44
2017-11-08T07:43:08.739Z,6.45
2017-11-08T07:44:18.900Z,6.31
2017-11-08T07:45:29.354Z,6.28
2017-11-08T07:46:39.504Z,6.27
2017-11-08T07:47:49.700Z,6.34
2017-11-08T07:49:00.391Z,6.28
2017-11-08T07:50:10.542Z,6.31
2017-11-08T07:51:20.689Z,6.27
2017-11-08T07:52:30.883Z,6.26
2017-11-08T07:53:41.338Z,6.27
2017-11-08T07:54:51.773Z,6.27
2017-11-08T07:56:02.208Z,6.17
2017-11-08T07:57:12.253Z,6.28
2017-11-08T07:58:22.689Z,6.39
2017-11-08T07:59:33.156Z,6.41
2017-11-08T08:00:43.631Z,6.42
2017-11-08T08:01:54.061Z,6.44
2017-11-08T08:03:04.561Z,6.31
2017-11-08T08:04:15.138Z,6.41
2017-11-08T08:05:25.676Z,6.39
2017-11-08T08:06:36.186Z,6.34
2017-11-08T08:07:46.666Z,6.31
2017-11-08T08:08:56.782Z,6.3
2017-11-08T08:10:07.312Z,6.34
2017-11-08T08:11:17.789Z,6.27
2017-11-08T08:12:28.237Z,6.3
2017-11-08T08:13:38.932Z,6.31
2017-11-08T08:14:49.400Z,6.36
2017-11-08T08:15:59.934Z,6.42
2017-11-08T08:17:10.038Z,6.42
2017-11-08T08:18:21.475Z,6.41
2017-11-08T08:19:31.590Z,6.46
2017-11-08T08:20:41.795Z,6.42
2017-11-08T08:21:51.807Z,6.26
2017-11-08T08:23:02.246Z,6.34
2017-11-08T08:24:12.684Z,6.38
2017-11-08T08:25:23.168Z,6.24
2017-11-08T08:26:34.638Z,6.2
2017-11-08T08:27:45.089Z,6.17
2017-11-08T08:28:55.549Z,6.23
2017-11-08T08:30:06.035Z,6.19
2017-11-08T08:31:16.504Z,6.16
2017-11-08T08:32:27.177Z,6.12
2017-11-08T08:33:37.338Z,6.17
2017-11-08T08:34:47.456Z,6.16
2017-11-08T08:35:57.886Z,6.16
2017-11-08T08:37:08.356Z,6.14
2017-11-08T08:38:18.705Z,6.16
2017-11-08T08:39:28.861Z,6.21
2017-11-08T08:40:39.294Z,6.2
2017-11-08T08:41:49.784Z,6.19
2017-11-08T08:43:00.295Z,6.19
2017-11-08T08:44:10.772Z,6.16
2017-11-08T08:45:21.345Z,6.2
2017-11-08T08:46:31.800Z,6.26
2017-11-08T08:47:41.915Z,6.28
2017-11-08T08:48:52.362Z,6.36
2017-11-08T08:50:03.898Z,6.31
2017-11-08T08:51:14.335Z,6.26
2017-11-08T08:52:24.796Z,6.34
2017-11-08T08:53:34.919Z,6.39
2017-11-08T08:54:45.364Z,6.45
2017-11-08T08:55:55.946Z,6.42
2017-11-08T08:57:06.057Z,6.39
2017-11-08T08:58:16.512Z,6.39
2017-11-08T08:59:27.048Z,6.49
2017-11-08T09:00:37.612Z,6.45
2017-11-08T09:01:48.051Z,6.42
2017-11-08T09:02:58.481Z,6.54
2017-11-08T09:04:09.015Z,6.48
2017-11-08T09:05:19.474Z,6.45
2017-11-08T09:06:29.606Z,6.49
2017-11-08T09:07:40.045Z,6.49
2017-11-08T09:08:50.497Z,6.56
2017-11-08T09:10:00.975Z,6.67
2017-11-08T09:11:11.646Z,6.78
2017-11-08T09:12:22.275Z,6.79
2017-11-08T09:13:33.039Z,6.85
2017-11-08T09:14:43.499Z,6.93
2017-11-08T09:15:53.967Z,6.87
2017-11-08T09:17:04.417Z,7.03
2017-11-08T09:18:14.895Z,6.95
2017-11-08T09:19:25.562Z,7.11
2017-11-08T09:20:35.872Z,7.17
2017-11-08T09:21:46.314Z,7.29
2017-11-08T09:22:56.787Z,7.41
2017-11-08T09:24:07.264Z,7.52
2017-11-08T09:25:17.825Z,7.62
2017-11-08T09:26:28.287Z,7.7
2017-11-08T09:27:38.775Z,7.67
2017-11-08T09:28:49.242Z,7.72
2017-11-08T09:29:59.623Z,7.66
2017-11-08T09:31:10.054Z,7.51
2017-11-08T09:32:20.325Z,7.47
2017-11-08T09:33:30.886Z,7.41
2017-11-08T09:34:41.366Z,7.44
2017-11-08T09:35:51.840Z,7.48
2017-11-08T09:37:02.298Z,7.62
2017-11-08T09:38:12.420Z,7.62
2017-11-08T09:39:22.867Z,7.62
2017-11-08T09:40:33.535Z,7.67
2017-11-08T09:41:43.584Z,7.76
2017-11-08T09:42:54.045Z,7.8
2017-11-08T09:44:04.180Z,7.8
2017-11-08T09:45:14.621Z,7.73
2017-11-08T09:46:25.280Z,7.7
2017-11-08T09:47:35.755Z,7.76
2017-11-08T09:48:45.907Z,7.79
2017-11-08T09:49:56.341Z,7.8
2017-11-08T09:51:07.019Z,7.73
2017-11-08T09:52:17.505Z,7.76
2017-11-08T09:53:27.962Z,7.87
2017-11-08T09:54:38.448Z,7.84
2017-11-08T09:55:49.214Z,7.98
2017-11-08T09:56:59.707Z,8.21
2017-11-08T09:58:10.161Z,8.4
2017-11-08T09:59:20.691Z,8.77
2017-11-08T10:00:31.179Z,9.15
2017-11-08T10:01:41.195Z,9.52
2017-11-08T10:02:51.673Z,9.84
2017-11-08T10:04:02.124Z,10.27
2017-11-08T10:05:12.245Z,10.57
2017-11-08T10:06:22.799Z,10.8
2017-11-08T10:07:33.039Z,11.05
2017-11-08T10:08:43.679Z,11.16
2017-11-08T10:09:54.595Z,11.4
2017-11-08T10:11:05.205Z,11.52
2017-11-08T10:12:15.359Z,11.66
2017-11-08T10:13:25.585Z,11.74
2017-11-08T10:14:36.126Z,11.72
2017-11-08T10:15:46.718Z,11.61
2017-11-08T10:16:57.277Z,11.35
2017-11-08T10:18:07.810Z,11.17
2017-11-08T10:19:17.652Z,11.1
2017-11-08T10:20:28.092Z,10.97
2017-11-08T10:21:38.556Z,10.73
2017-11-08T10:22:49.027Z,10.57
2017-11-08T10:23:59.211Z,10.37
2017-11-08T10:25:09.684Z,10.33
2017-11-08T10:26:20.030Z,10.22
2017-11-08T10:27:30.471Z,10.02
2017-11-08T10:28:40.940Z,9.88
2017-11-08T10:29:51.392Z,9.75
2017-11-08T10:31:01.964Z,9.66
2017-11-08T10:32:12.404Z,9.38
2017-11-08T10:33:23.104Z,9.19
2017-11-08T10:34:33.630Z,8.97
2017-11-08T10:35:44.085Z,8.93
2017-11-08T10:36:54.213Z,8.87
2017-11-08T10:38:04.816Z,8.82
2017-11-08T10:39:15.267Z,8.68
2017-11-08T10:40:25.702Z,8.66
2017-11-08T10:41:35.938Z,8.55
2017-11-08T10:42:45.947Z,8.57
2017-11-08T10:43:56.444Z,8.43
2017-11-08T10:45:06.520Z,8.57
2017-11-08T10:46:16.657Z,8.53
2017-11-08T10:47:26.706Z,8.55
2017-11-08T10:48:37.310Z,8.57
2017-11-08T10:49:47.436Z,8.64
2017-11-08T10:50:57.894Z,8.6
2017-11-08T10:52:08.060Z,8.5
2017-11-08T10:53:18.612Z,8.6
2017-11-08T10:54:29.062Z,8.57
2017-11-08T10:55:39.543Z,8.52
2017-11-08T10:56:49.763Z,8.46
2017-11-08T10:58:00.446Z,8.52
2017-11-08T10:59:10.929Z,8.5
2017-11-08T11:00:21.111Z,8.58
2017-11-08T11:01:31.578Z,8.61
2017-11-08T11:02:42.106Z,8.58
2017-11-08T11:03:52.251Z,8.61
2017-11-08T11:05:02.762Z,8.74
2017-11-08T11:06:13.207Z,8.79
2017-11-08T11:07:23.438Z,8.9
2017-11-08T11:08:33.594Z,8.79
2017-11-08T11:09:44.049Z,8.9
2017-11-08T11:10:54.193Z,9.02
2017-11-08T11:12:04.658Z,9.09
2017-11-08T11:13:15.125Z,9.29
2017-11-08T11:14:25.598Z,9.53
2017-11-08T11:15:36.061Z,9.77
2017-11-08T11:16:46.549Z,10
2017-11-08T11:17:56.679Z,10.21
2017-11-08T11:19:06.502Z,10.34
2017-11-08T11:20:16.668Z,10.61
2017-11-08T11:21:26.780Z,10.76
2017-11-08T11:22:36.650Z,10.85
2017-11-08T11:23:47.099Z,10.9
2017-11-08T11:24:57.577Z,10.79
2017-11-08T11:26:08.061Z,10.69
2017-11-08T11:27:18.320Z,10.59
2017-11-08T11:28:28.694Z,10.39
2017-11-08T11:29:38.065Z,10.3
2017-11-08T11:30:48.201Z,10.19
2017-11-08T11:31:58.335Z,10.05
2017-11-08T11:33:08.479Z,9.88
2017-11-08T11:34:18.647Z,9.75
2017-11-08T11:35:29.149Z,9.6
2017-11-08T11:36:39.221Z,9.56
2017-11-08T11:37:49.017Z,9.38
2017-11-08T11:38:58.843Z,9.37
2017-11-08T11:40:08.642Z,9.25
2017-11-08T11:41:19.222Z,9.26
2017-11-08T11:42:29.348Z,9.07
2017-11-08T11:43:39.163Z,8.95
2017-11-08T11:44:49.642Z,8.95
2017-11-08T11:45:59.424Z,8.74
2017-11-08T11:47:09.580Z,8.67
2017-11-08T11:48:20.042Z,8.58
2017-11-08T11:49:30.121Z,8.61
2017-11-08T11:50:40.560Z,8.5
2017-11-08T11:51:50.812Z,8.53
2017-11-08T11:53:00.972Z,8.5
2017-11-08T11:54:11.433Z,8.43
2017-11-08T11:55:22.053Z,8.31
2017-11-08T11:56:32.553Z,8.3
2017-11-08T11:57:42.578Z,8.27
2017-11-08T11:58:52.717Z,8.1
2017-11-08T12:00:03.201Z,8.24
2017-11-08T12:01:13.239Z,8.12
2017-11-08T12:02:23.718Z,8.1
2017-11-08T12:03:34.292Z,8.12
2017-11-08T12:04:44.433Z,8.03
2017-11-08T12:05:54.898Z,8.1
2017-11-08T12:07:04.263Z,8.15
2017-11-08T12:08:14.781Z,8.23
2017-11-08T12:09:24.600Z,8.13
2017-11-08T12:10:35.308Z,8.24
2017-11-08T12:11:45.463Z,8.32
2017-11-08T12:12:55.511Z,8.4
2017-11-08T12:14:06.058Z,8.5
2017-11-08T12:15:16.167Z,8.52
2017-11-08T12:16:26.701Z,8.52
2017-11-08T12:17:36.504Z,8.49
2017-11-08T12:18:46.582Z,8.53
2017-11-08T12:19:57.065Z,8.6
2017-11-08T12:21:07.523Z,8.57
2017-11-08T12:22:18.042Z,8.61
2017-11-08T12:23:28.346Z,8.58
2017-11-08T12:24:38.584Z,8.52
2017-11-08T12:25:48.723Z,8.61
2017-11-08T12:26:59.314Z,8.5
2017-11-08T12:28:09.464Z,8.52
2017-11-08T12:29:19.687Z,8.52
2017-11-08T12:30:30.140Z,8.61
2017-11-08T12:31:40.830Z,8.55
2017-11-08T12:32:51.292Z,8.5
2017-11-08T12:34:01.785Z,8.53
2017-11-08T12:35:12.568Z,8.42
2017-11-08T12:36:22.741Z,8.4
2017-11-08T12:37:33.290Z,8.39
2017-11-08T12:38:43.768Z,8.4
2017-11-08T12:39:54.230Z,8.46
2017-11-08T12:41:04.733Z,8.37
2017-11-08T12:42:15.191Z,8.45
2017-11-08T12:43:25.642Z,8.42
2017-11-08T12:44:36.128Z,8.45
2017-11-08T12:45:46.285Z,8.55
2017-11-08T12:46:56.743Z,8.52
2017-11-08T12:48:06.785Z,8.49
2017-11-08T12:49:17.094Z,8.52
2017-11-08T12:50:27.442Z,8.52
2017-11-08T12:51:37.899Z,8.5
2017-11-08T12:52:48.374Z,8.4
2017-11-08T12:53:58.832Z,8.34
2017-11-08T12:55:09.285Z,8.3
2017-11-08T12:56:19.750Z,8.34
2017-11-08T12:57:29.927Z,8.31
2017-11-08T12:58:39.973Z,8.25
2017-11-08T12:59:50.001Z,8.13
2017-11-08T13:01:00.517Z,8.15
2017-11-08T13:02:10.956Z,8.12
2017-11-08T13:03:21.564Z,8.13
2017-11-08T13:04:31.293Z,8.1
2017-11-08T13:05:41.769Z,8.12
2017-11-08T13:06:51.915Z,7.99
2017-11-08T13:08:02.366Z,7.97
2017-11-08T13:09:12.847Z,8.06
2017-11-08T13:10:23.466Z,7.97
2017-11-08T13:11:33.596Z,8.13
2017-11-08T13:12:44.115Z,8.13
2017-11-08T13:13:54.247Z,8.12
2017-11-08T13:15:04.728Z,8.16
2017-11-08T13:16:15.191Z,8.16
2017-11-08T13:17:25.315Z,8.21
2017-11-08T13:18:35.844Z,8.17
2017-11-08T13:19:46.309Z,8.17
2017-11-08T13:20:56.438Z,8.2
2017-11-08T13:22:06.922Z,8.12
2017-11-08T13:23:17.159Z,8.15
2017-11-08T13:24:27.196Z,8.17
2017-11-08T13:25:37.314Z,8.2
2017-11-08T13:26:47.264Z,8.15
2017-11-08T13:27:57.428Z,8.15
2017-11-08T13:29:07.591Z,8.16
2017-11-08T13:30:18.043Z,8.24
2017-11-08T13:31:28.519Z,8.3
2017-11-08T13:32:39.194Z,8.28
2017-11-08T13:33:49.345Z,8.23
2017-11-08T13:34:59.470Z,8.3
2017-11-08T13:36:10.066Z,8.3
2017-11-08T13:37:20.531Z,8.28
2017-11-08T13:38:30.670Z,8.3
2017-11-08T13:39:41.132Z,8.27
2017-11-08T13:40:51.290Z,8.17
2017-11-08T13:42:01.813Z,8.21
2017-11-08T13:43:12.358Z,8.17
2017-11-08T13:44:22.801Z,8.09
2017-11-08T13:45:32.957Z,8.1
2017-11-08T13:46:42.981Z,8.1
2017-11-08T13:47:53.531Z,8.16
2017-11-08T13:49:04.018Z,8.13
2017-11-08T13:50:14.473Z,8.21
2017-11-08T13:51:24.625Z,8.17
2017-11-08T13:52:34.704Z,8.2
2017-11-08T13:53:45.392Z,8.17
2017-11-08T13:54:55.850Z,8.2
2017-11-08T13:56:06.360Z,8.16
2017-11-08T13:57:16.816Z,8.07
2017-11-08T13:58:27.414Z,8.1
2017-11-08T13:59:37.914Z,8.1
2017-11-08T14:00:48.062Z,8.03
2017-11-08T14:01:57.777Z,7.99
2017-11-08T14:03:07.803Z,8.05
2017-11-08T14:04:17.618Z,7.94
2017-11-08T14:05:26.671Z,7.9
2017-11-08T14:06:38.109Z,7.85
2017-11-08T14:07:48.788Z,7.79
2017-11-08T14:08:59.302Z,7.9
2017-11-08T14:10:09.844Z,7.9
2017-11-08T14:11:20.338Z,7.87
2017-11-08T14:12:31.006Z,7.94
2017-11-08T14:13:41.480Z,7.92
2017-11-08T14:14:51.941Z,7.87
2017-11-08T14:16:02.472Z,7.82
2017-11-08T14:17:12.724Z,7.8
2017-11-08T14:18:23.217Z,7.88
2017-11-08T14:19:33.082Z,7.9
2017-11-08T14:20:43.270Z,7.87
2017-11-08T14:21:53.080Z,7.8
2017-11-08T14:23:03.151Z,7.8
2017-11-08T14:24:13.785Z,7.74
2017-11-08T14:25:23.521Z,7.84
2017-11-08T14:26:33.958Z,7.84
2017-11-08T14:27:44.467Z,7.79
2017-11-08T14:28:55.087Z,7.8
2017-11-08T14:30:05.335Z,7.77
2017-11-08T14:31:15.555Z,7.8
2017-11-08T14:32:25.904Z,7.73
2017-11-08T14:33:36.047Z,7.77
2017-11-08T14:34:46.505Z,7.79
2017-11-08T14:35:56.647Z,7.74
2017-11-08T14:37:07.134Z,7.77
2017-11-08T14:38:17.621Z,7.77
2017-11-08T14:39:28.328Z,7.77
2017-11-08T14:40:38.696Z,7.76
2017-11-08T14:41:49.150Z,7.82
2017-11-08T14:42:59.295Z,7.76
2017-11-08T14:44:09.445Z,7.77
2017-11-08T14:45:19.955Z,7.77
2017-11-08T14:46:30.437Z,7.74
2017-11-08T14:47:40.989Z,7.76
2017-11-08T14:48:51.460Z,7.69
2017-11-08T14:50:02.011Z,7.62
2017-11-08T14:51:12.144Z,7.61
2017-11-08T14:52:22.254Z,7.66
2017-11-08T14:53:32.710Z,7.59
2017-11-08T14:54:43.212Z,7.52
2017-11-08T14:55:53.672Z,7.58
2017-11-08T14:57:03.826Z,7.55
2017-11-08T14:58:13.550Z,7.49
2017-11-08T14:59:23.366Z,7.52
2017-11-08T15:00:33.875Z,7.47
2017-11-08T15:01:44.378Z,7.47
2017-11-08T15:02:54.865Z,7.44
2017-11-08T15:04:05.320Z,7.51
2017-11-08T15:05:15.977Z,7.54
2017-11-08T15:06:26.149Z,7.56
2017-11-08T15:07:36.697Z,7.51
2017-11-08T15:08:47.152Z,7.56
2017-11-08T15:09:57.668Z,7.56
2017-11-08T15:11:08.186Z,7.55
2017-11-08T15:12:18.257Z,7.51
2017-11-08T15:13:28.722Z,7.52
2017-11-08T15:14:38.850Z,7.52
2017-11-08T15:15:49.024Z,7.48
2017-11-08T15:16:59.391Z,7.43
2017-11-08T15:18:09.427Z,7.48
2017-11-08T15:19:19.609Z,7.43
2017-11-08T15:20:30.127Z,7.4
2017-11-08T15:21:40.678Z,7.36
2017-11-08T15:22:51.199Z,7.47
2017-11-08T15:24:01.365Z,7.36
2017-11-08T15:25:11.821Z,7.44
2017-11-08T15:26:22.340Z,7.44
2017-11-08T15:27:32.782Z,7.37
2017-11-08T15:28:42.904Z,7.31
2017-11-08T15:29:53.506Z,7.37
2017-11-08T15:31:03.996Z,7.26
2017-11-08T15:32:14.681Z,7.33
2017-11-08T15:33:25.226Z,7.33
2017-11-08T15:34:35.949Z,7.29
2017-11-08T15:35:46.637Z,7.21
2017-11-08T15:36:57.165Z,7.28
2017-11-08T15:38:07.637Z,7.2
2017-11-08T15:39:18.128Z,7.22
2017-11-08T15:40:28.199Z,7.21
2017-11-08T15:41:38.658Z,7.28
2017-11-08T15:42:49.228Z,7.22
2017-11-08T15:43:59.687Z,7.24
2017-11-08T15:45:10.206Z,7.22
2017-11-08T15:46:20.369Z,7.2
2017-11-08T15:47:30.544Z,7.2
2017-11-08T15:48:41.009Z,7.2
2017-11-08T15:49:51.672Z,7.21
2017-11-08T15:51:02.146Z,7.2
2017-11-08T15:52:11.545Z,7.21
2017-11-08T15:53:21.720Z,7.26